Cardenal Cagliero, Argentina
Current Conditions -  °F | °C
As of 11:00 AM on Friday 28 Nov 2014 (Local Time) from SAZN Reporting Station
Clear Clear  
Wind Chill: 68°   Ceiling: Unl
Heat Index: 68°   Visibility: 6mi
Dew Point: 43°   Wind: 2mph
Humidity: 40%   Direction: 230°SW
Pressure: 29.88"   Gusts: NA
Location:  40.65°S, 62.75°W
Report Text: SAZN 281400Z 23002KT CAVOK 20/06 Q1012
Loading
Personal Weather Stations






























Interactive Weather Map New forecast layout! Learn more

10-Day Weather Forecast

Advertisements
Track Severe Weather on mobile